Meath Environmental Platform

Observations

Time Sensor AQI SAQ Temp °C Hum % Pres Pa CO μg/m³ H₂S μg/m³ NO μg/m³ NO₂ μg/m³ O₃ μg/m³ SO₂ μg/m³ CO₂e PPM VOC PPM PM1 μg/m³ PM2.5 μg/m³ PM4 μg/m³ PM10 μg/m³ TPS µm
Tuesday 11 August 2026
21:31 Trim Market St 3 24.4 45 64,205 0 9.11 1.16 39.35 49.19 0 3.56 6.32 9.08
21:30 Trim Patrick St 3 23.7 47 69,043 0 26.68 1.21 55.04 41.22 11.17 6.29 11.23 12.35
21:30 Trim Market St 3 24.4 45 64,293 0 10.3 1.16 44.61 47.58 0 3.56 6.32 7.53
21:29 Trim Patrick St 3 23.8 47 69,031 0 25.67 1.19 51.67 38.44 10.57 6.29 11.23 12.35
21:29 Trim Market St 3 24.5 45 64,408 0 9.85 1.14 28.47 52.89 0 3.56 6.85 8.3
21:28 Trim Patrick St 3 23.8 48 69,045 0 26.63 1.13 47.33 43.88 11.61 6.29 13.42 14.77
21:28 Trim Market St 3 24.5 45 64,462 0 9.82 1.14 44.04 49.36 0 2.85 6.86 9.86
21:27 Trim Patrick St 3 23.8 46 69,033 0 27.66 1.23 50.45 42.4 11.59 6.29 12.86 14.15
21:27 Trim Market St 3 24.5 45 64,536 0 9.63 1.13 37.98 52.52 0 2.85 5.3 7.53
21:26 Trim Patrick St 3 23.9 48 69,049 0 27.02 1.14 52.75 52.09 11.94 7.14 12.7 13.97
21:26 Trim Market St 3 24.6 44 64,562 0 10.16 1.13 36.17 51.54 0 2.85 4.78 5.19
21:25 Trim Patrick St 3 23.9 47 69,037 0 25.62 1.19 48.35 40.05 10.61 6.29 12.01 13.22
21:25 Trim Market St 3 24.6 44 64,599 0 11.78 1.13 37.86 51.89 0 2.85 5.83 9.86
21:24 Trim Patrick St 3 24 47 69,057 0 27.69 1.16 50.51 41.87 11.85 5.43 11.25 12.38
21:24 Trim Market St 3 24.6 44 64,678 0 12.18 1.13 48.66 51.52 0 3.56 5.31 5.97
21:23 Trim Patrick St 3 24 47 69,051 0 27.61 1.14 53.1 40.93 11.87 6.29 11.97 13.17
21:23 Trim Market St 3 24.7 44 64,783 0 8.12 1.12 29.48 54.44 0 3.56 5.84 8.31
21:22 Trim Patrick St 3 24.1 46 69,043 0 27.58 1.19 51.67 43.32 11.8 6.29 12.08 13.28
21:21 Trim Patrick St 3 24.1 46 69,033 0 28.37 1.17 52.01 39.64 12.18 4.57 10.52 11.57
21:21 Trim Market St 3 24.8 44 64,823 0 12.15 1.11 48.36 47.42 0 2.14 5.34 5.96